Ashley, MI (48806)

2:37 AM EDT on August 29, 2015 (GMT -0400)
Hoovers Corners | | Change Station
CLOSE
Current Station
Personal Weather Station
Location: Elsie, MI
Elevation: 741 ft
Nearby Weather Stations

Elev 741 ft 43.10 °N, 84.34 °W | Updated 14 minutes ago

Rain
Rain
62.6 °F
Feels Like 62.6 °F
N
0.0
Wind Variable Wind from WSW
Gusts 0.0 mph

Today
High -- | Low -- °F
--% Chance of Precip.
Yesterday
High -- | Low -- °F
Precip. -- in
6:58 AM 8:18 PM
Full, 100% visible
Pressure 30.15 in
Visibility 7.0 miles
Clouds Mostly Cloudy 2700 ft
Mostly Cloudy 4900 ft
Overcast 10000 ft
Dew Point 62 °F
Humidity 97%
Rainfall 0.03 in
Snow Depth Not available.
UV 0 out of 12
Pollen 9.80 out of 12
Air Quality Not available.
Flu Activity Not available.
METAR KAMN 290611Z AUTO 29005KT 7SM -RA BKN027 BKN049 OVC100 17/17 A3015 RMK AO2 T01730170
Pressure 30.15 in
Visibility 7.0 miles
Clouds Mostly Cloudy 2700 ft
Mostly Cloudy 4900 ft
Overcast 10000 ft
Dew Point 62 °F
Humidity 97%
Rainfall 0.03 in
Snow Depth Not available.
UV 0 out of 12
Pollen 9.80 out of 12
Air Quality Not available.
Flu Activity Not available.
METAR KAMN 290611Z AUTO 29005KT 7SM -RA BKN027 BKN049 OVC100 17/17 A3015 RMK AO2 T01730170

10-Day Weather Forecast

×

Almanac

Astronomy

Aug. 29, 2015 Rise Set
Actual Time
Civil Twilight
Nautical Twilight
Astronomical Twilight
Moon
Length of Visible Light
Length of Day
Tomorrow will be .
, % of the Moon is Illuminated

Today's Extremes

State Highs State Lows

Community

WunderPhotos

Upload Photos

1,850,622 photos uploaded!

WunderBlogs® & News

Nearby

Air Quality

  Air Quality AQ Index Pollutant
Not available.

Snow Depth

Station Depth Elevation

Earthquake Activity

City Distance Mag. Time & Date
Minimum magnitude displayed is 2.5.

Coastal Water Temperatures

Place Temperature

Stations

Nearby Weather Stations

Station Location Temp. Windchill Dew Point Humidity Wind Precip. Elev Updated Type